Terminal Aerodrome Forecast
Issued by NWS

Home | Current Version | Previous Version | Text Only | Print | Product List | Glossary Off
Versions: 1 2 3 4 5 6 7 8 9 10 11 12 13 14 15 16 17 18 19

000
FTUS43 KABR 202100 AAB
TAFMBG
TAF AMD
KMBG 202134Z 2022/2118 18008KT P6SM SKC
     FM210200 15008KT 3SM BR OVC010
     FM210800 15008KT 3/4SM BR OVC006
     FM211600 19006KT P6SM SKC=

USA.gov is the U.S. government's official web portal to all federal, state and local government web resources and services.